Time;durP1;ratioP1;P1;durP2;ratioP2;P2;SDS_P1;SDS_P2;PMS_P1;PMS_P2;Temp;Humidity;BMP_temperature;BMP_pressure;BME280_temperature;BME280_humidity;BME280_pressure;Samples;Min_cycle;Max_cycle;Signal;HPM_P1;HPM_P2
2024/01/16 00:02:03;;;;;;;18.40;10.00;;;;;;;2.38;100.00;99356.62;105610;1258;71777;-79
2024/01/16 00:04:31;;;;;;;15.50;10.50;;;;;;;2.39;100.00;99348.29;105622;1254;60850;-79
2024/01/16 00:06:58;;;;;;;16.40;11.40;;;;;;;2.41;100.00;99348.56;105727;1257;60405;-77
2024/01/16 00:09:26;;;;;;;17.70;10.10;;;;;;;2.42;100.00;99329.71;105662;1259;73546;-78
2024/01/16 00:11:53;;;;;;;20.60;10.20;;;;;;;2.43;100.00;99325.36;105599;1259;62475;-77
2024/01/16 00:14:21;;;;;;;16.80;10.90;;;;;;;2.43;100.00;99321.77;105625;1258;73281;-77
2024/01/16 00:16:48;;;;;;;20.30;10.80;;;;;;;2.42;100.00;99315.06;105531;1254;60431;-77
2024/01/16 00:19:16;;;;;;;26.10;12.60;;;;;;;2.41;100.00;99314.41;105625;1259;60546;-75
2024/01/16 00:21:47;;;;;;;21.00;11.80;;;;;;;2.40;100.00;99307.20;105788;1254;74482;-78
2024/01/16 00:24:15;;;;;;;22.50;12.40;;;;;;;2.40;100.00;99318.92;105723;1254;63707;-77
2024/01/16 00:26:43;;;;;;;18.40;10.90;;;;;;;2.40;100.00;99314.46;105679;1257;72450;-78
2024/01/16 00:29:12;;;;;;;20.60;11.50;;;;;;;2.39;100.00;99312.08;105577;1259;60535;-75
2024/01/16 00:31:40;;;;;;;19.50;11.30;;;;;;;2.39;100.00;99326.42;105675;1254;60383;-76
2024/01/16 00:34:07;;;;;;;18.20;9.70;;;;;;;2.39;100.00;99323.45;105633;1254;72749;-74
2024/01/16 00:36:35;;;;;;;19.10;10.80;;;;;;;2.41;100.00;99324.23;105647;1254;64419;-76
2024/01/16 00:39:03;;;;;;;20.10;12.30;;;;;;;2.45;100.00;99316.11;105788;1256;72628;-76
2024/01/16 00:41:30;;;;;;;19.10;10.60;;;;;;;2.49;100.00;99311.46;105723;1258;60804;-77
2024/01/16 00:43:58;;;;;;;18.60;11.10;;;;;;;2.53;100.00;99322.30;105715;1259;60453;-76
2024/01/16 00:46:25;;;;;;;15.20;11.10;;;;;;;2.56;100.00;99322.86;105622;1254;74614;-73
2024/01/16 00:48:53;;;;;;;19.80;10.30;;;;;;;2.59;100.00;99325.82;105696;1254;62458;-77
2024/01/16 00:51:20;;;;;;;15.70;10.20;;;;;;;2.62;100.00;99329.30;105537;1254;70202;-76
2024/01/16 00:53:48;;;;;;;18.60;10.90;;;;;;;2.65;100.00;99335.88;105615;1254;60508;-77
2024/01/16 00:56:16;;;;;;;14.40;10.00;;;;;;;2.68;100.00;99332.78;105691;1253;60332;-77
2024/01/16 00:58:43;;;;;;;16.50;10.20;;;;;;;2.70;100.00;99331.80;105695;1254;72644;-80
2024/01/16 01:01:11;;;;;;;17.80;10.60;;;;;;;2.73;100.00;99333.21;105639;1259;63510;-77
2024/01/16 01:03:39;;;;;;;15.50;10.70;;;;;;;2.76;100.00;99334.46;105639;1254;71490;-75
2024/01/16 01:06:07;;;;;;;16.40;9.80;;;;;;;2.78;100.00;99329.90;105634;1254;60569;-76
2024/01/16 01:08:35;;;;;;;17.90;11.30;;;;;;;2.80;100.00;99325.82;105733;1254;60523;-79
2024/01/16 01:11:03;;;;;;;17.40;10.50;;;;;;;2.82;100.00;99327.11;105746;1254;73015;-77
2024/01/16 01:13:30;;;;;;;18.10;11.20;;;;;;;2.83;100.00;99323.40;105655;1259;63627;-76
2024/01/16 01:15:58;;;;;;;15.10;11.00;;;;;;;2.84;100.00;99324.23;105610;1254;71831;-77
2024/01/16 01:18:25;;;;;;;17.60;11.00;;;;;;;2.85;100.00;99320.58;105602;1259;60878;-74
2024/01/16 01:20:53;;;;;;;15.80;10.90;;;;;;;2.85;100.00;99315.73;105672;1254;61048;-79
2024/01/16 01:23:21;;;;;;;22.30;12.70;;;;;;;2.85;100.00;99312.79;105614;1257;73785;-78
2024/01/16 01:25:48;;;;;;;18.90;13.80;;;;;;;2.86;100.00;99309.27;105635;1254;61486;-77
2024/01/16 01:28:16;;;;;;;21.60;12.70;;;;;;;2.87;100.00;99315.98;105735;1253;70477;-76
2024/01/16 01:30:44;;;;;;;24.30;13.60;;;;;;;2.87;100.00;99304.05;105668;1254;60435;-79
2024/01/16 01:33:11;;;;;;;22.10;13.90;;;;;;;2.87;100.00;99311.98;105599;1259;60501;-78
2024/01/16 01:35:39;;;;;;;25.70;13.50;;;;;;;2.87;100.00;99312.19;105694;1258;73914;-77
2024/01/16 01:38:08;;;;;;;18.40;13.50;;;;;;;2.87;100.00;99308.40;105701;1254;63540;-76
2024/01/16 01:40:35;;;;;;;26.60;14.80;;;;;;;2.87;100.00;99301.81;105575;1259;73233;-76
2024/01/16 01:43:29;;;;;;;30.00;15.50;;;;;;;2.87;100.00;99303.05;105607;1253;60459;-76
2024/01/16 01:46:15;;;;;;;21.70;14.90;;;;;;;2.86;100.00;99292.20;105542;1254;60559;-75
2024/01/16 01:48:42;;;;;;;27.20;14.50;;;;;;;2.86;100.00;99296.73;105598;1259;73813;-77
2024/01/16 01:51:10;;;;;;;25.30;13.90;;;;;;;2.85;100.00;99294.52;105624;1254;63720;-77
2024/01/16 01:53:38;;;;;;;21.30;14.70;;;;;;;2.84;100.00;99287.27;105621;1254;72865;-74
2024/01/16 01:56:18;;;;;;;23.70;14.50;;;;;;;2.85;100.00;99279.16;105770;1259;60861;-77
2024/01/16 01:58:46;;;;;;;23.30;16.10;;;;;;;2.85;100.00;99275.71;105793;1254;60460;-75
2024/01/16 02:01:16;;;;;;;25.60;15.60;;;;;;;2.85;100.00;99268.29;105674;1254;72886;-76
2024/01/16 02:03:44;;;;;;;20.10;12.30;;;;;;;2.86;100.00;99265.83;105675;1254;63643;-79
2024/01/16 02:06:13;;;;;;;19.30;11.80;;;;;;;2.85;100.00;99263.91;105735;1254;71669;-77
2024/01/16 02:08:40;;;;;;;16.30;11.70;;;;;;;2.87;100.00;99257.83;105621;1254;60414;-76
2024/01/16 02:11:09;;;;;;;20.00;11.60;;;;;;;2.88;100.00;99252.60;105757;1254;60506;-78
2024/01/16 02:13:37;;;;;;;19.20;13.00;;;;;;;2.88;100.00;99243.43;105812;1259;73905;-75
2024/01/16 02:16:05;;;;;;;20.70;11.60;;;;;;;2.89;100.00;99231.32;106398;1253;63808;-74
2024/01/16 02:18:33;;;;;;;20.10;13.20;;;;;;;2.89;100.00;99231.13;106039;1258;73337;-79
2024/01/16 02:21:01;;;;;;;19.70;12.40;;;;;;;2.90;100.00;99230.05;105769;1257;60536;-76
2024/01/16 02:23:29;;;;;;;20.80;12.60;;;;;;;2.91;100.00;99217.73;105654;1259;60429;-77
2024/01/16 02:25:56;;;;;;;22.50;14.30;;;;;;;2.90;100.00;99207.08;105723;1253;72410;-77
2024/01/16 02:28:24;;;;;;;20.40;11.70;;;;;;;2.90;100.00;99197.08;105757;1256;63558;-77
2024/01/16 02:30:51;;;;;;;24.90;13.70;;;;;;;2.90;100.00;99188.63;105620;1259;71732;-78
2024/01/16 02:33:20;;;;;;;24.20;14.90;;;;;;;2.91;100.00;99184.44;105650;1254;60530;-78
2024/01/16 02:35:47;;;;;;;24.50;14.50;;;;;;;2.91;100.00;99179.59;105588;1252;60329;-75
2024/01/16 02:38:14;;;;;;;23.90;12.80;;;;;;;2.91;100.00;99180.81;105587;1259;73936;-77
2024/01/16 02:40:42;;;;;;;20.10;12.00;;;;;;;2.92;100.00;99180.09;105640;1259;63832;-78
2024/01/16 02:43:10;;;;;;;25.00;12.20;;;;;;;2.92;100.00;99169.56;105620;1258;72695;-76
2024/01/16 02:45:38;;;;;;;24.70;11.70;;;;;;;2.92;100.00;99158.87;105615;1259;60546;-74
2024/01/16 02:48:06;;;;;;;20.00;13.40;;;;;;;2.91;100.00;99154.23;105634;1254;60526;-78
2024/01/16 02:50:33;;;;;;;17.20;11.60;;;;;;;2.89;100.00;99151.38;105515;1253;73791;-76
2024/01/16 02:53:01;;;;;;;20.30;14.20;;;;;;;2.88;100.00;99145.55;105600;1253;62827;-77
2024/01/16 02:55:29;;;;;;;27.30;17.00;;;;;;;2.88;100.00;99142.98;105645;1259;72025;-79
2024/01/16 02:57:57;;;;;;;18.90;11.40;;;;;;;2.89;100.00;99142.77;105606;1254;60537;-80
2024/01/16 03:00:24;;;;;;;19.30;11.70;;;;;;;2.90;100.00;99141.00;105604;1254;60905;-77
2024/01/16 03:02:51;;;;;;;18.20;11.40;;;;;;;2.90;100.00;99139.08;105638;1253;72605;-77
2024/01/16 03:05:19;;;;;;;16.70;10.80;;;;;;;2.90;100.00;99135.27;105589;1259;64391;-78
2024/01/16 03:07:47;;;;;;;17.00;11.30;;;;;;;2.91;100.00;99132.65;105671;1259;72420;-80
2024/01/16 03:10:14;;;;;;;18.90;12.80;;;;;;;2.90;100.00;99129.41;105582;1254;60414;-78
2024/01/16 03:12:41;;;;;;;19.70;11.00;;;;;;;2.90;100.00;99129.02;105660;1254;61013;-79
2024/01/16 03:15:09;;;;;;;14.60;9.30;;;;;;;2.89;100.00;99127.75;105642;1254;73808;-79
2024/01/16 03:17:37;;;;;;;20.00;10.60;;;;;;;2.89;100.00;99123.40;105694;1257;63609;-78
2024/01/16 03:20:06;;;;;;;14.40;9.90;;;;;;;2.91;100.00;99124.89;105585;1254;72539;-77
2024/01/16 03:22:34;;;;;;;15.90;10.30;;;;;;;2.93;100.00;99117.38;105724;1253;60496;-79
2024/01/16 03:25:02;;;;;;;20.70;11.60;;;;;;;2.93;100.00;99114.24;105778;1257;60479;-78
2024/01/16 03:27:29;;;;;;;12.70;9.20;;;;;;;2.95;100.00;99110.34;105629;1253;74973;-77
2024/01/16 03:29:57;;;;;;;15.60;10.20;;;;;;;2.97;100.00;99109.55;105679;1254;62294;-78
2024/01/16 03:32:24;;;;;;;13.00;9.50;;;;;;;2.99;100.00;99108.92;105657;1254;72572;-76
2024/01/16 03:34:52;;;;;;;14.10;9.00;;;;;;;3.00;100.00;99098.49;105639;1254;60434;-78
2024/01/16 03:37:20;;;;;;;17.30;8.70;;;;;;;3.02;100.00;99094.24;105668;1257;60419;-78
2024/01/16 03:39:47;;;;;;;13.80;8.10;;;;;;;3.03;100.00;99088.51;105774;1257;73813;-78
2024/01/16 03:42:15;;;;;;;15.50;8.40;;;;;;;3.06;100.00;99089.76;105654;1254;62893;-79
2024/01/16 03:44:42;;;;;;;13.10;8.90;;;;;;;3.06;100.00;99087.63;105622;1259;71789;-76
2024/01/16 03:47:10;;;;;;;12.80;8.60;;;;;;;3.06;100.00;99083.33;105661;1254;60434;-78
2024/01/16 03:49:38;;;;;;;15.50;8.30;;;;;;;3.07;100.00;99076.04;105607;1256;60434;-76
2024/01/16 03:52:06;;;;;;;14.10;8.00;;;;;;;3.08;100.00;99072.02;105629;1254;72546;-77
2024/01/16 03:54:33;;;;;;;20.60;8.50;;;;;;;3.08;100.00;99065.77;105748;1254;62535;-80
2024/01/16 03:57:01;;;;;;;10.50;7.10;;;;;;;3.08;100.00;99065.09;105742;1254;72556;-77
2024/01/16 03:59:28;;;;;;;14.20;7.90;;;;;;;3.08;100.00;99069.94;105696;1256;60913;-77
2024/01/16 04:01:56;;;;;;;14.10;8.30;;;;;;;3.08;100.00;99065.79;105676;1254;60533;-79
2024/01/16 04:04:23;;;;;;;10.30;7.70;;;;;;;3.08;100.00;99057.52;105617;1254;73814;-77
2024/01/16 04:06:51;;;;;;;14.10;8.00;;;;;;;3.08;100.00;99051.09;105605;1254;62320;-79
2024/01/16 04:09:18;;;;;;;14.70;8.60;;;;;;;3.09;100.00;99049.65;105660;1254;72435;-78
2024/01/16 04:11:50;;;;;;;15.90;8.90;;;;;;;3.10;100.00;99050.32;105641;1259;62005;-77
2024/01/16 04:14:18;;;;;;;12.90;7.70;;;;;;;3.10;100.00;99044.11;105629;1254;60546;-80
2024/01/16 04:16:45;;;;;;;10.90;7.80;;;;;;;3.10;100.00;99038.08;105629;1258;73832;-78
2024/01/16 04:19:13;;;;;;;13.20;7.20;;;;;;;3.09;100.00;99038.95;105722;1254;62592;-78
2024/01/16 04:21:40;;;;;;;10.50;7.10;;;;;;;3.09;100.00;99032.40;105668;1254;72691;-78
2024/01/16 04:24:08;;;;;;;11.70;7.60;;;;;;;3.09;100.00;99032.41;105627;1254;60559;-78
2024/01/16 04:26:37;;;;;;;14.30;8.80;;;;;;;3.09;100.00;99028.80;105676;1253;60494;-77
2024/01/16 04:29:05;;;;;;;14.20;7.70;;;;;;;3.09;100.00;99023.27;105690;1254;73794;-78
2024/01/16 04:31:39;;;;;;;15.50;8.40;;;;;;;3.08;100.00;99020.39;105671;1259;62497;-77
2024/01/16 04:34:06;;;;;;;18.60;10.80;;;;;;;3.08;100.00;99017.08;105605;1259;72720;-76
2024/01/16 04:36:33;;;;;;;13.60;8.80;;;;;;;3.08;100.00;99009.50;105712;1258;60540;-75
2024/01/16 04:39:03;;;;;;;16.70;9.90;;;;;;;3.08;100.00;99009.33;105765;1259;60358;-77
2024/01/16 04:41:30;;;;;;;13.60;8.80;;;;;;;3.09;100.00;99002.04;105652;1259;73578;-77
2024/01/16 04:43:59;;;;;;;15.90;8.50;;;;;;;3.10;100.00;98994.73;105658;1256;61842;-78
2024/01/16 04:46:26;;;;;;;14.80;8.10;;;;;;;3.11;100.00;98986.88;105689;1257;72613;-78
2024/01/16 04:48:55;;;;;;;14.30;8.20;;;;;;;3.12;100.00;98992.17;105588;1253;60748;-77
2024/01/16 04:51:22;;;;;;;15.10;8.00;;;;;;;3.14;100.00;98995.38;105710;1253;60403;-76
2024/01/16 04:53:49;;;;;;;17.30;10.00;;;;;;;3.16;100.00;98995.63;105744;1254;72724;-78
2024/01/16 04:56:19;;;;;;;18.90;8.30;;;;;;;3.17;100.00;98992.64;105649;1259;62956;-78
2024/01/16 04:58:46;;;;;;;19.20;7.90;;;;;;;3.18;100.00;98991.19;105681;1259;72694;-77
2024/01/16 05:01:14;;;;;;;14.10;9.70;;;;;;;3.20;100.00;98994.54;105572;1254;60955;-78
2024/01/16 05:03:41;;;;;;;12.00;6.40;;;;;;;3.21;100.00;98998.45;105749;1253;60469;-77
2024/01/16 05:06:14;;;;;;;12.90;7.10;;;;;;;3.22;100.00;99004.95;105643;1254;72611;-80
2024/01/16 05:08:42;;;;;;;14.20;7.00;;;;;;;3.23;100.00;99004.54;105641;1254;62379;-77
2024/01/16 05:11:10;;;;;;;14.30;8.20;;;;;;;3.24;100.00;99012.06;105665;1254;71266;-76
2024/01/16 05:13:37;;;;;;;14.40;9.30;;;;;;;3.24;100.00;99016.36;105650;1259;60546;-79
2024/01/16 05:16:08;;;;;;;10.90;6.20;;;;;;;3.26;100.00;99017.52;105628;1254;60546;-77
2024/01/16 05:21:28;;;;;;;12.30;7.20;;;;;;;3.27;100.00;99018.27;102719;1292;600774;-78
2024/01/16 05:23:56;;;;;;;11.50;6.00;;;;;;;3.26;100.00;99015.60;104920;1266;59723;-79
2024/01/16 05:26:24;;;;;;;16.60;8.10;;;;;;;3.26;100.00;99016.09;104836;1271;59375;-79
2024/01/16 05:28:52;;;;;;;15.90;7.20;;;;;;;3.26;100.00;99012.84;105643;1256;72460;-77
2024/01/16 05:31:19;;;;;;;18.60;8.10;;;;;;;3.26;100.00;99014.90;105497;1255;62434;-78
2024/01/16 05:33:47;;;;;;;14.70;7.40;;;;;;;3.25;100.00;99012.75;105562;1259;72654;-78
2024/01/16 05:36:14;;;;;;;12.70;7.20;;;;;;;3.23;100.00;99009.88;105427;1253;475257;-79
2024/01/16 05:38:42;;;;;;;16.40;9.10;;;;;;;3.22;100.00;99005.98;105699;1253;59362;-77
2024/01/16 05:41:09;;;;;;;16.30;8.30;;;;;;;3.21;100.00;99008.64;106034;1253;73210;-77
2024/01/16 05:43:37;;;;;;;14.60;7.60;;;;;;;3.19;100.00;98998.73;105738;1258;63817;-78
2024/01/16 05:46:05;;;;;;;12.20;7.50;;;;;;;3.17;100.00;99000.05;105937;1256;72818;-78
2024/01/16 05:48:33;;;;;;;14.80;7.50;;;;;;;3.15;100.00;98996.90;105820;1257;60902;-77
2024/01/16 05:51:01;;;;;;;14.50;7.80;;;;;;;3.12;100.00;98994.97;105744;1253;59555;-79
2024/01/16 05:53:29;;;;;;;11.10;7.80;;;;;;;3.11;100.00;98995.88;105875;1257;72052;-79
2024/01/16 05:55:57;;;;;;;12.20;7.60;;;;;;;3.10;100.00;98996.11;105676;1253;63128;-77
2024/01/16 05:58:24;;;;;;;11.60;7.80;;;;;;;3.09;100.00;98996.48;105692;1254;72834;-76
2024/01/16 06:00:52;;;;;;;15.20;8.50;;;;;;;3.09;100.00;98992.02;105777;1257;59934;-77
2024/01/16 06:03:20;;;;;;;14.80;8.90;;;;;;;3.09;100.00;98991.66;105685;1255;59575;-77
2024/01/16 06:05:47;;;;;;;16.00;8.10;;;;;;;3.09;100.00;98989.23;105736;1257;75344;-78
2024/01/16 06:08:16;;;;;;;13.30;8.10;;;;;;;3.08;100.00;98987.41;105831;1253;62301;-76
2024/01/16 06:10:43;;;;;;;14.90;8.60;;;;;;;3.07;100.00;98986.23;105815;1253;72762;-76
2024/01/16 06:13:11;;;;;;;14.60;8.60;;;;;;;3.07;100.00;98983.48;105814;1253;60315;-78
2024/01/16 06:15:38;;;;;;;15.50;9.60;;;;;;;3.08;100.00;98978.60;105698;1257;59637;-76
2024/01/16 06:18:06;;;;;;;17.50;9.60;;;;;;;3.09;100.00;98980.78;105751;1257;73031;-76
2024/01/16 06:20:35;;;;;;;15.60;8.50;;;;;;;3.10;100.00;98973.85;105835;1258;62486;-76
2024/01/16 06:23:03;;;;;;;17.20;8.80;;;;;;;3.11;100.00;98973.09;105781;1259;72787;-78
2024/01/16 06:25:30;;;;;;;13.50;8.60;;;;;;;3.11;100.00;98969.45;105781;1258;61046;-77
2024/01/16 06:27:57;;;;;;;16.80;8.90;;;;;;;3.11;100.00;98967.71;105721;1259;59648;-77
2024/01/16 06:30:27;;;;;;;17.40;9.80;;;;;;;3.11;100.00;98971.34;105823;1258;71995;-77
2024/01/16 06:32:55;;;;;;;18.80;11.00;;;;;;;3.12;100.00;98964.73;105843;1257;63745;-77
2024/01/16 06:35:23;;;;;;;20.90;11.20;;;;;;;3.13;100.00;98961.40;105733;1257;72720;-76
2024/01/16 06:37:51;;;;;;;13.80;9.30;;;;;;;3.13;100.00;98961.61;105883;1253;59713;-74
2024/01/16 06:40:39;;;;;;;14.50;8.60;;;;;;;3.10;100.00;98965.36;105750;1253;60099;-80
2024/01/16 06:43:07;;;;;;;13.90;8.20;;;;;;;3.09;100.00;98968.86;105845;1253;72838;-78
2024/01/16 06:45:34;;;;;;;16.30;10.60;;;;;;;3.09;100.00;98970.42;105749;1253;62462;-76
2024/01/16 06:48:02;;;;;;;12.60;8.00;;;;;;;3.10;100.00;98964.67;105740;1258;72819;-77
2024/01/16 06:50:30;;;;;;;13.40;8.80;;;;;;;3.10;100.00;98965.16;105816;1254;60987;-77
2024/01/16 06:52:57;;;;;;;12.50;8.30;;;;;;;3.10;100.00;98960.71;105769;1259;59680;-77
2024/01/16 06:55:25;;;;;;;15.90;8.60;;;;;;;3.10;100.00;98961.92;105609;1258;73044;-77
2024/01/16 06:57:52;;;;;;;13.00;7.90;;;;;;;3.11;100.00;98949.95;105706;1257;62485;-75
2024/01/16 07:00:22;;;;;;;15.60;9.00;;;;;;;3.11;100.00;98946.32;105791;1258;72699;-78
2024/01/16 07:02:51;;;;;;;14.70;9.10;;;;;;;3.12;100.00;98948.70;105884;1258;59994;-78
2024/01/16 07:05:18;;;;;;;15.40;8.80;;;;;;;3.15;100.00;98942.81;105814;1257;59734;-78
2024/01/16 07:07:47;;;;;;;13.80;8.00;;;;;;;3.17;100.00;98938.56;105668;1254;72262;-79
2024/01/16 07:10:18;;;;;;;15.70;9.70;;;;;;;3.18;100.00;98943.17;105781;1253;63538;-78
2024/01/16 07:12:45;;;;;;;11.90;8.40;;;;;;;3.18;100.00;98939.02;105702;1253;70587;-79
2024/01/16 07:15:13;;;;;;;10.00;6.60;;;;;;;3.19;100.00;98940.39;105625;1257;59648;-79
2024/01/16 07:17:41;;;;;;;9.30;6.80;;;;;;;3.19;100.00;98936.88;105632;1253;59916;-80
2024/01/16 07:20:10;;;;;;;8.60;6.00;;;;;;;3.20;100.00;98934.98;105731;1253;71668;-79
2024/01/16 07:22:41;;;;;;;7.40;5.40;;;;;;;3.18;100.00;98931.61;105676;1253;62312;-79
2024/01/16 07:25:08;;;;;;;8.20;5.50;;;;;;;3.16;100.00;98935.71;105719;1254;70846;-79
2024/01/16 07:27:36;;;;;;;8.20;5.80;;;;;;;3.12;100.00;98945.77;105839;1259;60413;-78
2024/01/16 07:30:07;;;;;;;7.40;5.40;;;;;;;3.10;100.00;98948.64;105720;1257;59543;-80
2024/01/16 07:32:35;;;;;;;8.30;6.90;;;;;;;3.10;100.00;98951.20;105808;1257;73082;-77
2024/01/16 07:35:03;;;;;;;9.20;6.80;;;;;;;3.10;100.00;98947.77;105598;1256;63748;-78
2024/01/16 07:37:30;;;;;;;11.30;6.60;;;;;;;3.08;100.00;98943.53;105618;1257;71481;-80
2024/01/16 07:40:01;;;;;;;9.60;6.50;;;;;;;3.07;100.00;98947.23;105654;1253;61492;-79
2024/01/16 07:42:33;;;;;;;11.00;6.40;;;;;;;3.07;100.00;98945.36;105633;1254;59850;-79
2024/01/16 07:45:04;;;;;;;10.50;7.70;;;;;;;3.07;100.00;98949.33;105641;1253;73038;-78
2024/01/16 07:47:32;;;;;;;14.40;8.20;;;;;;;3.08;100.00;98956.17;105844;1257;63695;-77
2024/01/16 07:50:01;;;;;;;14.20;8.70;;;;;;;3.08;100.00;98959.24;105776;1253;72701;-77
2024/01/16 07:52:33;;;;;;;12.50;8.00;;;;;;;3.07;100.00;98969.48;105811;1253;59996;-76
2024/01/16 07:55:01;;;;;;;6.80;6.00;;;;;;;3.05;100.00;98975.85;105664;1253;60037;-80
2024/01/16 07:57:28;;;;;;;5.20;4.60;;;;;;;3.03;100.00;98983.20;105698;1258;72816;-78
2024/01/16 07:59:56;;;;;;;6.10;4.80;;;;;;;2.99;100.00;98981.73;105692;1256;63655;-78
2024/01/16 08:02:34;;;;;;;6.60;4.70;;;;;;;2.97;100.00;98983.57;105864;1257;72757;-79
2024/01/16 08:05:04;;;;;;;5.50;4.90;;;;;;;2.96;100.00;98982.73;105704;1259;59731;-77
2024/01/16 08:07:32;;;;;;;5.10;4.30;;;;;;;2.94;100.00;98986.83;105701;1252;59629;-77
2024/01/16 08:10:00;;;;;;;4.50;3.90;;;;;;;2.89;100.00;98993.63;105621;1259;71610;-79
2024/01/16 08:12:28;;;;;;;5.30;4.80;;;;;;;2.83;100.00;98992.56;105660;1259;62450;-79
2024/01/16 08:14:55;;;;;;;8.80;5.90;;;;;;;2.81;100.00;98994.44;105671;1259;72801;-77
2024/01/16 08:17:23;;;;;;;7.60;5.40;;;;;;;2.80;100.00;98997.57;105679;1252;60875;-77
2024/01/16 08:20:13;;;;;;;8.20;6.20;;;;;;;2.78;100.00;98999.22;105750;1258;59728;-79
2024/01/16 08:22:41;;;;;;;9.10;6.40;;;;;;;2.74;100.00;98998.07;105716;1252;73114;-79
2024/01/16 08:25:08;;;;;;;11.50;7.20;;;;;;;2.71;100.00;99004.80;105674;1251;62452;-78
2024/01/16 08:27:37;;;;;;;14.70;9.20;;;;;;;2.65;100.00;99009.42;105751;1256;73135;-79
2024/01/16 08:30:07;;;;;;;13.90;8.60;;;;;;;2.61;100.00;99002.05;105757;1257;59711;-78
2024/01/16 08:32:35;;;;;;;13.30;9.60;;;;;;;2.52;100.00;99006.00;105736;1250;60028;-79
2024/01/16 08:35:05;;;;;;;12.60;9.60;;;;;;;2.41;100.00;99014.65;105699;1259;73086;-79
2024/01/16 08:37:33;;;;;;;14.50;10.40;;;;;;;2.32;100.00;99022.36;105673;1257;63612;-78
2024/01/16 08:40:00;;;;;;;13.80;10.10;;;;;;;2.23;100.00;99026.45;105727;1257;71502;-79
2024/01/16 08:42:28;;;;;;;11.80;9.40;;;;;;;2.17;100.00;99030.73;105732;1259;59885;-78
2024/01/16 08:44:55;;;;;;;19.30;10.60;;;;;;;2.09;100.00;99031.29;105789;1256;60479;-76
2024/01/16 08:47:23;;;;;;;15.60;10.70;;;;;;;2.00;100.00;99035.88;105700;1259;72602;-78
2024/01/16 08:49:51;;;;;;;12.10;9.70;;;;;;;1.95;100.00;99035.81;105699;1253;62416;-76
2024/01/16 08:52:18;;;;;;;11.60;9.30;;;;;;;1.94;100.00;99042.61;105706;1259;73345;-77
2024/01/16 08:54:45;;;;;;;15.40;9.90;;;;;;;1.91;100.00;99045.30;105751;1251;59785;-77
2024/01/16 08:57:13;;;;;;;14.30;11.10;;;;;;;1.89;100.00;99044.38;105760;1256;59544;-77
2024/01/16 08:59:44;;;;;;;13.00;10.20;;;;;;;1.88;100.00;99050.48;105748;1256;72125;-78
2024/01/16 09:02:12;;;;;;;11.00;9.80;;;;;;;1.85;100.00;99052.48;105785;1257;63857;-78
2024/01/16 09:04:41;;;;;;;14.90;11.20;;;;;;;1.85;100.00;99054.40;105824;1258;75114;-80
2024/01/16 09:07:10;;;;;;;14.30;12.40;;;;;;;1.83;100.00;99062.41;105828;1258;60409;-79
2024/01/16 09:09:37;;;;;;;13.50;11.40;;;;;;;1.83;100.00;99066.23;105812;1257;60144;-79
2024/01/16 09:12:05;;;;;;;16.00;12.30;;;;;;;1.81;100.00;99071.80;105802;1257;71357;-78
2024/01/16 09:14:33;;;;;;;16.80;12.20;;;;;;;1.80;100.00;99074.10;105853;1256;65836;-79
2024/01/16 09:17:01;;;;;;;14.90;12.50;;;;;;;1.79;100.00;99073.48;105781;1257;73515;-79
2024/01/16 09:19:29;;;;;;;15.80;12.90;;;;;;;1.78;100.00;99079.19;105826;1254;60673;-78
2024/01/16 09:21:57;;;;;;;16.10;14.10;;;;;;;1.77;100.00;99089.08;105703;1252;61884;-78
2024/01/16 09:24:25;;;;;;;13.80;12.00;;;;;;;1.76;100.00;99096.70;105902;1259;71841;-78
2024/01/16 09:26:52;;;;;;;14.10;12.50;;;;;;;1.74;100.00;99098.20;105841;1256;62562;-77
2024/01/16 09:29:21;;;;;;;16.80;14.40;;;;;;;1.68;100.00;99097.11;105789;1258;72527;-79
2024/01/16 09:31:49;;;;;;;15.90;12.90;;;;;;;1.64;100.00;99096.05;105819;1256;60441;-80
2024/01/16 09:34:17;;;;;;;13.40;11.80;;;;;;;1.61;100.00;99107.25;105786;1256;60511;-78
2024/01/16 09:36:46;;;;;;;16.80;12.70;;;;;;;1.59;100.00;99112.52;105806;1252;73296;-79
2024/01/16 09:39:14;;;;;;;13.60;12.20;;;;;;;1.55;100.00;99113.70;105686;1258;62388;-77
2024/01/16 09:41:45;;;;;;;15.80;14.10;;;;;;;1.52;100.00;99113.70;105927;1257;72497;-76
2024/01/16 09:44:14;;;;;;;14.10;12.50;;;;;;;1.50;100.00;99121.73;105772;1257;60542;-78
2024/01/16 09:46:43;;;;;;;16.00;13.70;;;;;;;1.49;100.00;99127.77;105827;1261;60508;-77
2024/01/16 09:49:11;;;;;;;13.80;12.30;;;;;;;1.51;100.00;99133.73;105892;1258;72741;-79
2024/01/16 09:51:39;;;;;;;16.80;13.00;;;;;;;1.53;100.00;99138.75;105743;1257;66550;-80
2024/01/16 09:54:08;;;;;;;15.20;12.90;;;;;;;1.55;100.00;99138.88;105813;1257;72636;-79
2024/01/16 09:56:41;;;;;;;15.30;13.30;;;;;;;1.55;100.00;99142.17;105844;1258;63787;-80
2024/01/16 09:59:09;;;;;;;12.60;10.80;;;;;;;1.55;100.00;99147.63;105801;1251;60550;-79
2024/01/16 10:01:36;;;;;;;12.90;10.30;;;;;;;1.58;100.00;99152.70;105843;1251;73809;-80
2024/01/16 10:04:04;;;;;;;12.80;11.00;;;;;;;1.57;100.00;99145.13;105729;1258;63602;-78
2024/01/16 10:06:32;;;;;;;12.10;10.80;;;;;;;1.57;100.00;99154.93;105774;1257;71488;-78
2024/01/16 10:09:00;;;;;;;9.90;8.90;;;;;;;1.59;100.00;99164.36;105687;1256;62043;-76
2024/01/16 10:11:29;;;;;;;10.80;9.70;;;;;;;1.62;100.00;99165.95;105682;1259;60296;-79
2024/01/16 10:13:58;;;;;;;11.80;9.10;;;;;;;1.66;100.00;99166.77;105783;1259;73064;-79
2024/01/16 10:17:15;;;;;;;11.10;9.50;;;;;;;1.67;100.00;99168.11;105757;1257;63848;-78
2024/01/16 10:19:52;;;;;;;10.50;9.00;;;;;;;1.63;100.00;99169.63;105703;1259;74914;-76
2024/01/16 10:22:21;;;;;;;11.10;9.00;;;;;;;1.61;100.00;99168.02;105733;1252;61240;-79
2024/01/16 10:25:05;;;;;;;11.30;9.20;;;;;;;1.60;100.00;99164.80;105704;1251;60930;-77
2024/01/16 10:27:33;;;;;;;10.50;9.20;;;;;;;1.60;100.00;99171.02;105667;1253;73573;-78
2024/01/16 10:30:02;;;;;;;10.70;9.50;;;;;;;1.59;100.00;99173.31;105686;1256;63454;-79
2024/01/16 10:32:33;;;;;;;9.80;8.50;;;;;;;1.60;100.00;99166.53;105741;1257;72822;-79
2024/01/16 10:35:10;;;;;;;11.70;8.30;;;;;;;1.63;100.00;99163.66;105770;1258;61072;-79
2024/01/16 10:37:53;;;;;;;9.90;8.10;;;;;;;1.64;100.00;99165.15;105635;1257;60340;-76
2024/01/16 10:40:26;;;;;;;9.90;8.30;;;;;;;1.63;100.00;99156.92;105671;1257;74431;-78
2024/01/16 10:43:00;;;;;;;;;;;;;;;1.64;100.00;99152.73;105711;1257;62066;-77
2024/01/16 10:45:28;;;;;;;9.50;7.20;;;;;;;1.70;100.00;99154.54;105869;1251;72148;-79
2024/01/16 10:48:06;;;;;;;10.90;8.50;;;;;;;1.75;100.00;99150.48;105815;1254;61823;-78
2024/01/16 10:50:37;;;;;;;12.20;8.50;;;;;;;1.82;100.00;99152.59;105848;1251;60635;-78
2024/01/16 10:53:07;;;;;;;13.10;9.20;;;;;;;1.89;100.00;99150.86;105665;1251;74145;-79
2024/01/16 10:55:46;;;;;;;9.90;8.40;;;;;;;1.96;100.00;99152.05;105951;1259;62150;-79
2024/01/16 10:58:14;;;;;;;11.50;8.80;;;;;;;2.03;100.00;99151.40;105758;1264;71484;-78
2024/01/16 11:00:42;;;;;;;11.10;9.40;;;;;;;2.11;100.00;99151.52;105904;1255;60700;-78
2024/01/16 11:03:18;;;;;;;10.80;9.30;;;;;;;2.18;100.00;99163.95;105751;1253;60765;-81
2024/01/16 11:05:46;;;;;;;10.70;8.70;;;;;;;2.19;100.00;99171.45;105803;1252;73666;-78
2024/01/16 11:08:16;;;;;;;10.50;8.80;;;;;;;2.23;100.00;99176.46;105666;1254;63234;-78
2024/01/16 11:10:45;;;;;;;10.00;8.30;;;;;;;2.30;100.00;99193.71;105816;1251;72165;-79
2024/01/16 11:13:12;;;;;;;14.90;9.80;;;;;;;2.40;100.00;99200.96;105740;1251;60757;-79
2024/01/16 11:15:40;;;;;;;10.60;9.50;;;;;;;2.49;100.00;99218.46;105675;1260;60653;-79
2024/01/16 11:18:07;;;;;;;12.80;10.30;;;;;;;2.55;100.00;99227.49;105724;1251;74439;-79
2024/01/16 11:20:35;;;;;;;13.20;10.50;;;;;;;2.59;100.00;99230.23;105729;1259;63490;-79
2024/01/16 11:23:24;;;;;;;13.50;10.10;;;;;;;2.55;100.00;99238.73;105826;1252;75046;-80
2024/01/16 11:25:52;;;;;;;12.70;9.70;;;;;;;2.52;100.00;99250.27;105796;1256;61413;-80